Flight Track Log - Related Links

Times and Time Zones

All times are in EDT time to prevent confusion due to time zone crossing. See the KAL1331 flight status page for this flight to view local times or setup timezone preferences in your user account.

Time Position Orientation Groundspeed Altitude Reporting Facility
EDT Latitude Longitude Course Direction KTS MPH feet Rate Location/Type
Wed 06:07:00 PM 37.2071 126.9005 166° South  Level Estimated
Wed 06:08:00 PM 37.1193 126.9278 166° South  Level Estimated
Wed 06:09:00 PM 37.0315 126.9551 166° South  Level Estimated
Wed 06:10:00 PM 36.9436 126.9823 166° South  Level Estimated
Wed 06:11:00 PM 36.8497 127.0113 166° South  Level Estimated
Wed 06:12:00 PM 36.7558 127.0403 166° South  Level Estimated
Wed 06:13:00 PM 36.6619 127.0691 166° South  Level Estimated
Wed 06:14:00 PM 36.5680 127.0979 166° South  Level Estimated
Wed 06:15:00 PM 36.4741 127.1266 166° South  Level Estimated
Wed 06:16:00 PM 36.3802 127.1553 166° South  Level Estimated
Wed 06:17:00 PM 36.2862 127.1839 166° South  Level Estimated
Wed 06:18:00 PM 36.1923 127.2124 166° South  Level Estimated
Wed 06:19:00 PM 36.0983 127.2408 166° South  Level Estimated
Wed 06:20:00 PM 36.0044 127.2692 166° South  Level Estimated
Wed 06:21:00 PM 35.9104 127.2975 166° South  Level Estimated
Wed 06:22:00 PM 35.8164 127.3258 166° South  Level Estimated
Wed 06:23:00 PM 35.7225 127.3540 166° South  Level Estimated
Wed 06:24:00 PM 35.6285 127.3821 166° South  Level Estimated
Wed 06:25:00 PM 35.5345 127.4101 166° South  Level Estimated
Wed 06:26:00 PM 35.4405 127.4381 166° South  Level Estimated
Wed 06:27:00 PM 35.3465 127.4660 166° South  Level Estimated
Wed 06:28:00 PM 35.2525 127.4939 166° South  Level Estimated
Wed 06:29:00 PM 35.1585 127.5216 166° South  Level Estimated
Wed 06:30:00 PM 35.0645 127.5494 166° South  Level Estimated
Wed 06:31:00 PM 34.9704 127.5770 166° South  Level Estimated
Wed 06:32:00 PM 34.8764 127.6046 166° South  Level Estimated
Wed 06:33:00 PM 34.8398 127.6153 166° South  Level Estimated
Wed 06:34:00 PM 34.8398 127.6153 North  Level Estimated
Wed 06:35:00 PM 34.8398 127.6153 North  Level Estimated
Wed 06:36:00 PM 34.8398 127.6153 North  Level Estimated
Wed 06:37:00 PM 34.8398 127.6153 North  Level Estimated
Wed 06:38:00 PM 34.8398 127.6153 North  Level Estimated
Wed 06:39:00 PM 34.8398 127.6153 North  Level Estimated
Wed 06:40:00 PM 34.8398 127.6153 North  Level Estimated
Wed 06:41:00 PM 34.8398 127.6153 North  Level Estimated
Wed 06:42:00 PM 34.8398 127.6153 North  Level Estimated
Wed 06:43:00 PM 34.8398 127.6153 North  Level Estimated
Wed 06:44:00 PM 34.8398 127.6153 North  Level Estimated
Wed 06:45:00 PM 34.8398 127.6153 North  Level Estimated
Wed 06:46:00 PM 34.8398 127.6153 North  Level Estimated
Wed 06:47:00 PM 34.8398 127.6153 North  Level Estimated
Wed 06:48:00 PM 34.8398 127.6153 North  Level Estimated

Login

Don't have an account? Register now (free) for customized features, flight alerts, and more!